createdAt,value
2023-03-11T00:00:22.434Z,9.70
2023-03-11T00:02:52.659Z,9.65
2023-03-11T00:05:24.042Z,9.61
2023-03-11T00:07:51.537Z,9.60
2023-03-11T00:10:21.528Z,9.57
2023-03-11T00:12:48.241Z,9.54
2023-03-11T00:15:15.704Z,9.54
2023-03-11T00:17:42.577Z,9.52
2023-03-11T00:20:17.684Z,9.51
2023-03-11T00:22:44.521Z,9.51
2023-03-11T00:25:12.696Z,9.49
2023-03-11T00:27:39.572Z,9.47
2023-03-11T00:30:07.511Z,9.48
2023-03-11T00:32:34.346Z,9.51
2023-03-11T00:35:01.846Z,9.53
2023-03-11T00:37:28.664Z,9.54
2023-03-11T00:39:55.445Z,9.55
2023-03-11T00:42:22.234Z,9.54
2023-03-11T00:44:49.151Z,9.53
2023-03-11T00:47:15.892Z,9.53
2023-03-11T00:49:43.150Z,9.53
2023-03-11T00:52:10.095Z,9.53
2023-03-11T00:54:36.901Z,9.53
2023-03-11T00:57:04.350Z,9.54
2023-03-11T00:59:31.126Z,9.55
2023-03-11T01:01:58.440Z,9.56
2023-03-11T01:04:25.236Z,9.59
2023-03-11T01:06:52.047Z,9.62
2023-03-11T01:09:18.836Z,9.61
2023-03-11T01:11:45.641Z,9.63
2023-03-11T01:14:12.454Z,9.63
2023-03-11T01:16:39.252Z,9.64
2023-03-11T01:19:06.171Z,9.65
2023-03-11T01:21:33.066Z,9.65
2023-03-11T01:24:00.050Z,9.64
2023-03-11T01:26:26.874Z,9.62
2023-03-11T01:28:56.091Z,9.60
2023-03-11T01:31:23.127Z,9.54
2023-03-11T01:33:50.069Z,9.52
2023-03-11T01:36:16.798Z,9.50
2023-03-11T01:38:43.664Z,9.47
2023-03-11T01:41:12.145Z,9.45
2023-03-11T01:43:45.153Z,9.40
2023-03-11T01:46:22.974Z,9.35
2023-03-11T01:48:58.631Z,9.24
2023-03-11T01:51:32.342Z,9.18
2023-03-11T01:54:05.281Z,9.09
2023-03-11T01:56:33.201Z,9.01
2023-03-11T01:59:00.624Z,8.91
2023-03-11T02:01:28.197Z,8.81
2023-03-11T02:03:56.669Z,8.75
2023-03-11T02:06:25.376Z,8.70
2023-03-11T02:08:52.735Z,8.64
2023-03-11T02:11:27.334Z,8.57
2023-03-11T02:13:59.051Z,8.43
2023-03-11T02:16:26.293Z,8.32
2023-03-11T02:18:53.407Z,8.20
2023-03-11T02:21:22.965Z,8.11
2023-03-11T02:23:55.605Z,8.02
2023-03-11T02:26:29.612Z,7.96
2023-03-11T02:28:58.381Z,7.92
2023-03-11T02:31:26.527Z,7.93
2023-03-11T02:33:54.991Z,7.91
2023-03-11T02:36:38.411Z,7.94
2023-03-11T02:39:08.423Z,8.00
2023-03-11T02:41:40.272Z,8.05
2023-03-11T02:44:09.597Z,8.16
2023-03-11T02:46:38.547Z,8.22
2023-03-11T02:49:06.628Z,8.31
2023-03-11T02:51:34.187Z,8.37
2023-03-11T02:54:04.452Z,8.44
2023-03-11T02:56:32.025Z,8.47
2023-03-11T02:58:59.790Z,8.48
2023-03-11T03:01:28.393Z,8.47
2023-03-11T03:03:55.420Z,8.43
2023-03-11T03:06:22.473Z,8.36
2023-03-11T03:08:51.517Z,8.34
2023-03-11T03:11:18.386Z,8.31
2023-03-11T03:13:46.343Z,8.31
2023-03-11T03:16:13.262Z,8.34
2023-03-11T03:18:40.078Z,8.38
2023-03-11T03:21:08.846Z,8.43
2023-03-11T03:23:37.749Z,8.47
2023-03-11T03:26:06.037Z,8.51
2023-03-11T03:28:36.116Z,8.52
2023-03-11T03:31:11.239Z,8.56
2023-03-11T03:33:40.182Z,8.56
2023-03-11T03:36:13.529Z,8.56
2023-03-11T03:38:43.561Z,8.55
2023-03-11T03:41:13.190Z,8.51
2023-03-11T03:43:41.339Z,8.50
2023-03-11T03:46:09.126Z,8.50
2023-03-11T03:48:43.219Z,8.53
2023-03-11T03:51:13.301Z,8.56
2023-03-11T03:53:48.229Z,8.58
2023-03-11T03:56:17.082Z,8.58
2023-03-11T03:58:44.649Z,8.59
2023-03-11T04:01:12.072Z,8.60
2023-03-11T04:03:40.545Z,8.60
2023-03-11T04:06:22.997Z,8.59
2023-03-11T04:08:55.754Z,8.59
2023-03-11T04:11:27.281Z,8.59
2023-03-11T04:13:54.738Z,8.60
2023-03-11T04:16:23.564Z,8.59
2023-03-11T04:18:53.184Z,8.59
2023-03-11T04:21:21.186Z,8.61
2023-03-11T04:23:48.593Z,8.62
2023-03-11T04:26:17.287Z,8.64
2023-03-11T04:28:44.102Z,8.67
2023-03-11T04:31:12.574Z,8.71
2023-03-11T04:33:39.511Z,8.68
2023-03-11T04:36:09.855Z,8.68
2023-03-11T04:38:38.019Z,8.62
2023-03-11T04:41:07.549Z,8.62
2023-03-11T04:43:36.646Z,8.58
2023-03-11T04:46:04.174Z,8.55
2023-03-11T04:48:31.487Z,8.50
2023-03-11T04:50:58.354Z,8.49
2023-03-11T04:53:25.716Z,8.48
2023-03-11T04:55:54.094Z,8.46
2023-03-11T04:58:21.699Z,8.45
2023-03-11T05:00:48.625Z,8.43
2023-03-11T05:03:16.791Z,8.46
2023-03-11T05:05:44.878Z,8.46
2023-03-11T05:08:14.719Z,8.47
2023-03-11T05:10:42.869Z,8.48
2023-03-11T05:13:11.442Z,8.48
2023-03-11T05:15:41.117Z,8.47
2023-03-11T05:18:09.880Z,8.50
2023-03-11T05:20:39.860Z,8.53
2023-03-11T05:23:08.558Z,8.58
2023-03-11T05:25:38.937Z,8.63
2023-03-11T05:28:06.596Z,8.67
2023-03-11T05:30:37.997Z,8.77
2023-03-11T05:33:05.091Z,8.83
2023-03-11T05:35:32.174Z,8.92
2023-03-11T05:37:59.246Z,9.00
2023-03-11T05:40:28.453Z,9.00
2023-03-11T05:42:55.861Z,9.04
2023-03-11T05:45:23.097Z,9.07
2023-03-11T05:47:54.458Z,9.12
2023-03-11T05:50:21.540Z,9.14
2023-03-11T05:52:50.612Z,9.07
2023-03-11T05:55:18.538Z,9.08
2023-03-11T05:57:46.389Z,9.24
2023-03-11T06:00:13.804Z,9.41
2023-03-11T06:02:42.111Z,9.67
2023-03-11T06:05:13.742Z,9.96
2023-03-11T06:07:42.091Z,10.16
2023-03-11T06:10:09.993Z,10.30
2023-03-11T06:12:38.667Z,10.38
2023-03-11T06:15:25.774Z,10.39
2023-03-11T06:17:53.664Z,10.23
2023-03-11T06:20:20.515Z,10.15
2023-03-11T06:22:50.885Z,10.23
2023-03-11T06:25:18.781Z,10.15
2023-03-11T06:27:51.653Z,10.08
2023-03-11T06:30:20.249Z,10.10
2023-03-11T06:32:55.282Z,10.22
2023-03-11T06:35:22.307Z,10.43
2023-03-11T06:37:49.181Z,10.55
2023-03-11T06:40:16.149Z,10.63
2023-03-11T06:42:43.027Z,10.68
2023-03-11T06:45:11.291Z,10.74
2023-03-11T06:47:38.680Z,10.71
2023-03-11T06:50:07.509Z,10.68
2023-03-11T06:52:34.423Z,10.62
2023-03-11T06:55:01.633Z,10.53
2023-03-11T06:57:30.966Z,10.49
2023-03-11T07:00:00.886Z,10.56
2023-03-11T07:02:29.557Z,10.67
2023-03-11T07:04:56.504Z,10.81
2023-03-11T07:07:23.449Z,10.96
2023-03-11T07:09:50.254Z,11.23
2023-03-11T07:12:17.861Z,11.45
2023-03-11T07:14:45.312Z,11.60
2023-03-11T07:17:12.872Z,11.60
2023-03-11T07:19:46.202Z,11.63
2023-03-11T07:22:13.053Z,11.59
2023-03-11T07:24:39.798Z,11.47
2023-03-11T07:27:06.827Z,11.53
2023-03-11T07:29:33.647Z,11.62
2023-03-11T07:32:00.462Z,11.61
2023-03-11T07:34:27.315Z,11.56
2023-03-11T07:36:54.247Z,11.58
2023-03-11T07:39:22.700Z,11.64
2023-03-11T07:41:49.507Z,11.67
2023-03-11T07:44:17.460Z,11.77
2023-03-11T07:46:45.132Z,11.91
2023-03-11T07:49:12.495Z,12.05
2023-03-11T07:51:43.947Z,12.06
2023-03-11T07:54:12.907Z,12.10
2023-03-11T07:56:39.973Z,12.11
2023-03-11T07:59:06.818Z,11.99
2023-03-11T08:01:37.048Z,11.85
2023-03-11T08:04:06.162Z,11.69
2023-03-11T08:06:34.901Z,11.58
2023-03-11T08:09:04.612Z,11.42
2023-03-11T08:11:32.303Z,11.32
2023-03-11T08:13:59.618Z,11.12
2023-03-11T08:16:26.814Z,11.01
2023-03-11T08:18:54.236Z,10.96
2023-03-11T08:21:24.326Z,10.88
2023-03-11T08:23:52.163Z,11.04
2023-03-11T08:26:24.319Z,11.22
2023-03-11T08:28:51.325Z,11.56
2023-03-11T08:31:24.590Z,11.97
2023-03-11T08:33:53.628Z,12.42
2023-03-11T08:36:21.059Z,12.81
2023-03-11T08:38:48.024Z,13.24
2023-03-11T08:41:15.696Z,13.46
2023-03-11T08:43:43.056Z,13.73
2023-03-11T08:46:17.942Z,13.77
2023-03-11T08:48:45.395Z,13.76
2023-03-11T08:51:13.717Z,13.68
2023-03-11T08:53:40.876Z,13.69
2023-03-11T08:56:08.058Z,13.76
2023-03-11T08:58:35.558Z,13.76
2023-03-11T09:01:02.866Z,13.82
2023-03-11T09:03:36.110Z,13.90
2023-03-11T09:06:06.576Z,13.85
2023-03-11T09:08:33.925Z,13.74
2023-03-11T09:11:00.998Z,13.24
2023-03-11T09:13:27.982Z,12.82
2023-03-11T09:15:54.862Z,12.41
2023-03-11T09:18:21.729Z,12.21
2023-03-11T09:20:48.727Z,12.04
2023-03-11T09:23:17.223Z,11.92
2023-03-11T09:25:44.912Z,11.57
2023-03-11T09:28:11.768Z,11.27
2023-03-11T09:30:38.608Z,11.23
2023-03-11T09:33:05.387Z,11.26
2023-03-11T09:35:32.723Z,11.04
2023-03-11T09:37:59.676Z,11.08
2023-03-11T09:40:31.342Z,11.10
2023-03-11T09:43:24.928Z,11.28
2023-03-11T09:46:02.469Z,11.44
2023-03-11T09:48:35.030Z,11.58
2023-03-11T09:51:20.828Z,11.85
2023-03-11T09:53:53.768Z,12.13
2023-03-11T09:56:22.503Z,12.45
2023-03-11T09:58:52.585Z,13.00
2023-03-11T10:01:28.566Z,13.60
2023-03-11T10:03:59.801Z,14.19
2023-03-11T10:06:29.701Z,14.55
2023-03-11T10:09:12.536Z,14.75
2023-03-11T10:12:02.576Z,15.04
2023-03-11T10:14:40.183Z,15.13
2023-03-11T10:17:31.526Z,15.37
2023-03-11T10:20:13.354Z,15.38
2023-03-11T10:23:07.385Z,14.42
2023-03-11T10:25:52.222Z,14.95
2023-03-11T10:28:22.533Z,14.99
2023-03-11T10:31:03.661Z,14.97
2023-03-11T10:33:47.990Z,14.83
2023-03-11T10:36:24.011Z,14.43
2023-03-11T10:38:52.907Z,13.85
2023-03-11T10:41:43.049Z,13.01
2023-03-11T10:44:17.453Z,12.00
2023-03-11T10:46:45.258Z,11.42
2023-03-11T10:49:17.552Z,10.82
2023-03-11T10:51:50.730Z,10.27
2023-03-11T10:54:46.404Z,9.80
2023-03-11T10:57:29.347Z,9.45
2023-03-11T10:59:58.753Z,9.20
2023-03-11T11:02:51.404Z,8.96
2023-03-11T11:05:18.236Z,8.63
2023-03-11T11:07:46.802Z,8.34
2023-03-11T11:10:22.481Z,8.19
2023-03-11T11:12:54.999Z,8.09
2023-03-11T11:15:36.910Z,7.98
2023-03-11T11:18:18.071Z,7.88
2023-03-11T11:21:02.296Z,7.76
2023-03-11T11:23:42.588Z,7.32
2023-03-11T11:26:22.725Z,7.01
2023-03-11T11:29:13.785Z,6.85
2023-03-11T11:31:45.643Z,6.67
2023-03-11T11:34:32.340Z,6.51
2023-03-11T11:37:03.549Z,6.34
2023-03-11T11:39:51.435Z,6.30
2023-03-11T11:42:23.538Z,6.20
2023-03-11T11:44:57.657Z,6.21
2023-03-11T11:47:48.648Z,6.23
2023-03-11T11:50:27.968Z,6.28
2023-03-11T11:53:20.527Z,6.27
2023-03-11T11:55:50.234Z,6.27
2023-03-11T11:58:17.509Z,6.37
2023-03-11T12:01:15.045Z,6.43
2023-03-11T12:04:19.512Z,6.48
2023-03-11T12:07:12.315Z,6.56
2023-03-11T12:09:51.385Z,6.60
2023-03-11T12:12:19.179Z,6.67
2023-03-11T12:15:14.587Z,6.67
2023-03-11T12:17:44.567Z,6.64
2023-03-11T12:20:27.893Z,6.51
2023-03-11T12:23:08.237Z,6.56
2023-03-11T12:25:46.981Z,6.55
2023-03-11T12:28:31.933Z,6.49
2023-03-11T12:31:03.753Z,6.41
2023-03-11T12:33:35.610Z,6.42
2023-03-11T12:36:04.449Z,6.43
2023-03-11T12:38:34.324Z,6.38
2023-03-11T12:41:08.987Z,6.39
2023-03-11T12:43:35.875Z,6.37
2023-03-11T12:46:05.004Z,6.39
2023-03-11T12:49:12.059Z,6.36
2023-03-11T12:51:40.389Z,6.57
2023-03-11T12:54:31.456Z,6.78
2023-03-11T12:57:18.607Z,6.87
2023-03-11T13:00:23.182Z,6.89
2023-03-11T13:03:29.702Z,6.98
2023-03-11T13:06:19.975Z,7.09
2023-03-11T13:08:50.512Z,7.17
2023-03-11T13:11:47.729Z,7.17
2023-03-11T13:14:22.288Z,7.20
2023-03-11T13:16:50.252Z,7.07
2023-03-11T13:19:26.420Z,7.02
2023-03-11T13:22:01.796Z,6.85
2023-03-11T13:24:31.818Z,6.67
2023-03-11T13:26:58.615Z,6.43
2023-03-11T13:29:42.320Z,6.46
2023-03-11T13:32:30.550Z,6.51
2023-03-11T13:35:12.238Z,6.54
2023-03-11T13:37:44.589Z,6.49
2023-03-11T13:40:20.129Z,6.43
2023-03-11T13:42:50.781Z,6.41
2023-03-11T13:45:38.710Z,6.49
2023-03-11T13:48:16.513Z,6.53
2023-03-11T13:50:52.052Z,6.40
2023-03-11T13:53:30.052Z,6.25
2023-03-11T13:55:56.913Z,6.24
2023-03-11T13:58:25.897Z,6.21
2023-03-11T14:01:01.211Z,6.09
2023-03-11T14:03:41.690Z,5.99
2023-03-11T14:06:19.331Z,5.98
2023-03-11T14:08:57.541Z,5.99
2023-03-11T14:11:32.070Z,6.08
2023-03-11T14:13:59.004Z,6.14
2023-03-11T14:16:44.324Z,6.24
2023-03-11T14:19:16.623Z,6.29
2023-03-11T14:21:45.581Z,6.39
2023-03-11T14:24:30.276Z,6.49
2023-03-11T14:27:01.393Z,6.56
2023-03-11T14:29:34.330Z,6.65
2023-03-11T14:32:15.057Z,6.76
2023-03-11T14:34:41.871Z,6.86
2023-03-11T14:37:30.712Z,6.93
2023-03-11T14:39:57.738Z,6.95
2023-03-11T14:42:40.096Z,6.99
2023-03-11T14:45:17.259Z,6.99
2023-03-11T14:47:56.825Z,7.00
2023-03-11T14:50:30.706Z,6.95
2023-03-11T14:53:15.954Z,6.97
2023-03-11T14:56:04.102Z,6.98
2023-03-11T14:59:07.919Z,7.05
2023-03-11T15:01:41.985Z,7.17
2023-03-11T15:04:11.753Z,7.28
2023-03-11T15:06:41.229Z,7.35
2023-03-11T15:09:15.779Z,7.46
2023-03-11T15:11:55.342Z,7.45
2023-03-11T15:14:36.059Z,7.42
2023-03-11T15:17:37.126Z,7.33
2023-03-11T15:20:27.739Z,7.29
2023-03-11T15:22:58.389Z,7.24
2023-03-11T15:25:25.285Z,7.12
2023-03-11T15:27:52.334Z,7.07
2023-03-11T15:30:28.669Z,6.90
2023-03-11T15:32:56.942Z,6.82
2023-03-11T15:35:26.744Z,6.79
2023-03-11T15:38:21.550Z,6.78
2023-03-11T15:40:58.623Z,6.78
2023-03-11T15:43:33.557Z,6.79
2023-03-11T15:46:02.836Z,6.76
2023-03-11T15:48:31.300Z,6.75
2023-03-11T15:50:59.619Z,6.75
2023-03-11T15:53:27.713Z,6.75
2023-03-11T15:56:06.596Z,6.73
2023-03-11T15:58:35.621Z,6.67
2023-03-11T16:01:02.834Z,6.58
2023-03-11T16:03:31.355Z,6.49
2023-03-11T16:05:58.421Z,6.42
2023-03-11T16:08:25.257Z,6.34
2023-03-11T16:10:52.033Z,6.24
2023-03-11T16:13:18.805Z,6.20
2023-03-11T16:15:47.258Z,6.17
2023-03-11T16:18:14.186Z,6.12
2023-03-11T16:20:51.200Z,6.06
2023-03-11T16:23:44.825Z,6.04
2023-03-11T16:26:17.487Z,5.93
2023-03-11T16:28:44.545Z,5.91
2023-03-11T16:31:11.334Z,5.82
2023-03-11T16:33:38.216Z,5.81
2023-03-11T16:36:05.929Z,5.72
2023-03-11T16:38:42.521Z,5.68
2023-03-11T16:41:09.339Z,5.63
2023-03-11T16:43:36.176Z,5.56
2023-03-11T16:46:03.139Z,5.57
2023-03-11T16:48:30.101Z,5.56
2023-03-11T16:50:56.974Z,5.50
2023-03-11T16:53:25.338Z,5.52
2023-03-11T16:55:53.616Z,5.48
2023-03-11T16:58:20.668Z,5.52
2023-03-11T17:00:47.635Z,5.52
2023-03-11T17:03:18.214Z,5.54
2023-03-11T17:05:47.989Z,5.55
2023-03-11T17:08:16.392Z,5.53
2023-03-11T17:10:45.216Z,5.49
2023-03-11T17:13:13.740Z,5.46
2023-03-11T17:15:44.368Z,5.45
2023-03-11T17:18:11.992Z,5.45
2023-03-11T17:20:40.594Z,5.43
2023-03-11T17:23:07.354Z,5.36
2023-03-11T17:25:34.106Z,5.34
2023-03-11T17:28:01.031Z,5.34
2023-03-11T17:30:36.799Z,5.28
2023-03-11T17:33:04.438Z,5.28
2023-03-11T17:35:31.356Z,5.28
2023-03-11T17:37:58.495Z,5.23
2023-03-11T17:40:27.052Z,5.26
2023-03-11T17:42:54.089Z,5.24
2023-03-11T17:45:20.932Z,5.25
2023-03-11T17:47:47.796Z,5.13
2023-03-11T17:50:14.864Z,5.15
2023-03-11T17:52:41.621Z,5.10
2023-03-11T17:55:09.288Z,5.11
2023-03-11T17:57:45.204Z,5.11
2023-03-11T18:00:14.874Z,5.08
2023-03-11T18:02:42.349Z,5.06
2023-03-11T18:05:09.529Z,5.01
2023-03-11T18:07:39.465Z,5.01
2023-03-11T18:10:07.193Z,4.98
2023-03-11T18:12:34.207Z,4.94
2023-03-11T18:15:04.283Z,4.93
2023-03-11T18:17:31.662Z,4.86
2023-03-11T18:20:01.986Z,4.80
2023-03-11T18:22:28.795Z,4.76
2023-03-11T18:24:55.625Z,4.74
2023-03-11T18:27:24.538Z,4.74
2023-03-11T18:29:51.941Z,4.74
2023-03-11T18:32:20.839Z,4.76
2023-03-11T18:34:51.413Z,4.77
2023-03-11T18:37:18.381Z,4.79
2023-03-11T18:39:45.144Z,4.78
2023-03-11T18:42:14.068Z,4.78
2023-03-11T18:44:41.785Z,4.74
2023-03-11T18:47:08.563Z,4.69
2023-03-11T18:49:35.391Z,4.66
2023-03-11T18:52:02.238Z,4.66
2023-03-11T18:54:29.054Z,4.64
2023-03-11T18:56:55.925Z,4.62
2023-03-11T18:59:23.088Z,4.65
2023-03-11T19:01:51.049Z,4.68
2023-03-11T19:04:17.949Z,4.69
2023-03-11T19:06:44.916Z,4.72
2023-03-11T19:09:11.681Z,4.72
2023-03-11T19:11:38.511Z,4.75
2023-03-11T19:14:05.295Z,4.76
2023-03-11T19:16:32.330Z,4.73
2023-03-11T19:18:59.283Z,4.77
2023-03-11T19:21:26.296Z,4.74
2023-03-11T19:23:55.324Z,4.77
2023-03-11T19:26:33.761Z,4.76
2023-03-11T19:29:04.597Z,4.73
2023-03-11T19:31:31.505Z,4.74
2023-03-11T19:33:59.656Z,4.71
2023-03-11T19:36:27.677Z,4.69
2023-03-11T19:38:54.437Z,4.65
2023-03-11T19:41:23.103Z,4.63
2023-03-11T19:43:50.034Z,4.59
2023-03-11T19:46:19.984Z,4.57
2023-03-11T19:48:47.009Z,4.51
2023-03-11T19:51:14.362Z,4.52
2023-03-11T19:53:41.877Z,4.50
2023-03-11T19:56:09.739Z,4.52
2023-03-11T19:58:36.782Z,4.54
2023-03-11T20:01:04.176Z,4.53
2023-03-11T20:03:31.756Z,4.56
2023-03-11T20:06:05.480Z,4.58
2023-03-11T20:08:36.727Z,4.61
2023-03-11T20:11:05.636Z,4.62
2023-03-11T20:13:34.705Z,4.64
2023-03-11T20:16:10.016Z,4.67
2023-03-11T20:18:37.280Z,4.72
2023-03-11T20:21:06.301Z,4.74
2023-03-11T20:23:33.636Z,4.76
2023-03-11T20:26:00.563Z,4.78
2023-03-11T20:28:27.426Z,4.79
2023-03-11T20:30:55.410Z,4.81
2023-03-11T20:33:22.232Z,4.83
2023-03-11T20:35:49.073Z,4.87
2023-03-11T20:38:16.047Z,4.89
2023-03-11T20:40:43.208Z,4.91
2023-03-11T20:43:10.172Z,4.95
2023-03-11T20:45:36.969Z,4.96
2023-03-11T20:48:04.217Z,5.00
2023-03-11T20:50:31.031Z,5.02
2023-03-11T20:52:57.969Z,5.03
2023-03-11T20:55:25.613Z,5.04
2023-03-11T20:57:54.402Z,5.05
2023-03-11T21:00:21.644Z,5.05
2023-03-11T21:02:49.040Z,5.05
2023-03-11T21:05:15.883Z,5.04
2023-03-11T21:07:42.694Z,5.06
2023-03-11T21:10:11.986Z,5.05
2023-03-11T21:12:38.931Z,5.04
2023-03-11T21:15:07.784Z,5.02
2023-03-11T21:17:35.352Z,5.03
2023-03-11T21:20:05.181Z,5.02
2023-03-11T21:22:33.149Z,5.00
2023-03-11T21:25:00.123Z,4.97
2023-03-11T21:27:27.235Z,4.97
2023-03-11T21:29:57.956Z,4.95
2023-03-11T21:32:26.670Z,4.96
2023-03-11T21:35:00.824Z,4.94
2023-03-11T21:37:28.709Z,4.89
2023-03-11T21:39:55.715Z,4.90
2023-03-11T21:42:22.902Z,4.90
2023-03-11T21:44:51.390Z,4.90
2023-03-11T21:47:19.664Z,4.88
2023-03-11T21:49:46.692Z,4.86
2023-03-11T21:52:13.777Z,4.87
2023-03-11T21:54:40.760Z,4.84
2023-03-11T21:57:07.667Z,4.87
2023-03-11T21:59:34.641Z,4.88
2023-03-11T22:02:03.290Z,4.87
2023-03-11T22:04:31.568Z,4.86
2023-03-11T22:06:58.554Z,4.84
2023-03-11T22:09:26.364Z,4.83
2023-03-11T22:11:53.547Z,4.82
2023-03-11T22:14:20.437Z,4.82
2023-03-11T22:16:47.374Z,4.81
2023-03-11T22:19:14.415Z,4.81
2023-03-11T22:21:41.292Z,4.82
2023-03-11T22:24:08.206Z,4.84
2023-03-11T22:26:35.321Z,4.86
2023-03-11T22:29:04.171Z,4.88
2023-03-11T22:31:31.665Z,4.89
2023-03-11T22:33:58.660Z,4.89
2023-03-11T22:36:25.493Z,4.89
2023-03-11T22:38:52.372Z,4.92
2023-03-11T22:41:20.354Z,4.93
2023-03-11T22:43:47.431Z,4.91
2023-03-11T22:46:14.569Z,4.92
2023-03-11T22:48:41.669Z,4.90
2023-03-11T22:51:08.644Z,4.90
2023-03-11T22:53:35.502Z,4.88
2023-03-11T22:56:10.870Z,4.84
2023-03-11T22:58:38.097Z,4.83
2023-03-11T23:01:05.486Z,4.82
2023-03-11T23:03:33.442Z,4.81
2023-03-11T23:06:06.890Z,4.80
2023-03-11T23:08:34.943Z,4.80
2023-03-11T23:11:04.546Z,4.78
2023-03-11T23:13:32.208Z,4.78
2023-03-11T23:16:05.120Z,4.78
2023-03-11T23:18:32.003Z,4.75
2023-03-11T23:20:58.861Z,4.76
2023-03-11T23:23:25.874Z,4.75
2023-03-11T23:25:53.355Z,4.77
2023-03-11T23:28:20.585Z,4.80
2023-03-11T23:30:47.736Z,4.81
2023-03-11T23:33:14.601Z,4.83
2023-03-11T23:35:42.163Z,4.84
2023-03-11T23:38:10.134Z,4.87
2023-03-11T23:40:39.798Z,4.87
2023-03-11T23:43:06.508Z,4.88
2023-03-11T23:45:33.258Z,4.88
2023-03-11T23:48:00.139Z,4.88
2023-03-11T23:50:26.888Z,4.87
2023-03-11T23:52:53.756Z,4.86
2023-03-11T23:55:20.514Z,4.86
2023-03-11T23:57:47.242Z,4.86
